createdAt,value
2024-04-23T01:49:50.188Z,0.40
2024-04-23T01:55:50.043Z,2.70
2024-04-23T02:01:49.998Z,2.60
2024-04-23T02:07:49.970Z,2.70
2024-04-23T06:26:10.659Z,0.80
2024-04-23T06:32:10.566Z,3.60
2024-04-23T06:38:10.531Z,4.20
2024-04-23T06:44:10.387Z,4.10
2024-04-23T06:50:10.367Z,4.40
2024-04-23T06:56:10.306Z,4.50
2024-04-23T07:02:10.291Z,4.60
2024-04-23T07:08:10.196Z,4.40
2024-04-23T07:14:10.110Z,4.40
2024-04-23T07:20:10.148Z,4.10
2024-04-23T07:26:09.970Z,4.50
2024-04-23T07:32:10.020Z,3.80
2024-04-23T07:38:09.833Z,4.20
2024-04-23T07:44:10.170Z,3.90
2024-04-23T07:50:09.755Z,4.30
2024-04-23T07:56:09.724Z,4.20
2024-04-23T08:02:09.761Z,4.10
2024-04-23T08:08:09.630Z,0.10
2024-04-23T08:14:09.486Z,4.10
2024-04-23T08:20:09.403Z,0.10
2024-04-23T08:26:09.366Z,0.10
2024-04-23T08:32:09.356Z,0.10
2024-04-23T08:38:09.176Z,0.10
2024-04-23T08:44:09.286Z,1.70
2024-04-23T08:50:09.097Z,2.20
2024-04-23T08:56:09.036Z,1.80
2024-04-23T09:02:08.941Z,1.20
2024-04-23T09:08:08.948Z,0.80
2024-04-23T09:14:08.947Z,0.80
2024-04-23T09:20:08.775Z,0.50
2024-04-23T09:26:08.753Z,0.70
2024-04-23T09:32:08.764Z,0.00
2024-04-23T09:38:08.929Z,0.90
2024-04-23T09:44:08.554Z,0.80
2024-04-23T09:50:08.427Z,0.60
2024-04-23T09:56:08.478Z,1.50
2024-04-23T10:02:08.365Z,0.60
2024-04-23T10:08:08.307Z,0.70
2024-04-23T10:14:08.150Z,0.60
2024-04-23T10:20:08.215Z,0.60
2024-04-23T10:26:08.050Z,0.50
2024-04-23T10:32:08.026Z,0.50
2024-04-23T10:38:07.927Z,0.50
2024-04-23T10:44:07.836Z,0.60
2024-04-23T10:50:07.889Z,0.60
2024-04-23T10:56:07.805Z,0.60
2024-04-23T11:02:07.895Z,0.50
2024-04-23T11:08:07.568Z,0.60
2024-04-23T11:14:07.592Z,0.60
2024-04-23T11:20:07.565Z,0.50
2024-04-23T11:26:07.473Z,0.50
2024-04-23T11:32:07.395Z,0.50
2024-04-23T11:38:07.349Z,0.50
2024-04-23T11:44:07.290Z,0.50
2024-04-23T11:50:07.846Z,0.60
2024-04-23T11:56:07.112Z,0.60
2024-04-23T12:02:07.087Z,0.60
2024-04-23T12:08:07.177Z,0.50
2024-04-23T12:14:07.000Z,0.50
2024-04-23T12:20:06.875Z,0.50
2024-04-23T12:26:06.787Z,0.60
2024-04-23T12:32:06.841Z,0.60
2024-04-23T12:38:06.685Z,0.50
2024-04-23T12:44:06.679Z,0.50
2024-04-23T12:50:06.577Z,0.70
2024-04-23T12:56:06.470Z,0.50
2024-04-23T13:02:06.419Z,0.50
2024-04-23T13:08:06.371Z,0.60
2024-04-23T13:14:06.478Z,0.60
2024-04-23T13:20:06.202Z,0.50
2024-04-23T13:26:06.193Z,0.50
2024-04-23T13:32:06.122Z,0.60
2024-04-23T13:38:06.067Z,0.50
2024-04-23T13:44:06.036Z,0.60
2024-04-23T13:50:05.967Z,0.60
